Terminal Aerodrome Forecast
Issued by NWS

Home | Current Version | Previous Version | Text Only | Print | Product List | Glossary On
Versions: 1 2 3 4 5 6 7 8 9 10 11 12 13 14
000
FTUS43 KGRR 290500
TAFMKG
TAF
KMKG 290532Z 2906/3006 19007KT P6SM SCT150
     FM291200 19015G22KT P6SM BKN100
     FM291700 19024G32KT P6SM -SHRA OVC050
     FM291900 21024G34KT 3SM -RASN BR OVC025
     FM300000 22014KT 3SM -DZ BR OVC007=

USA.gov is the U.S. government's official web portal to all federal, state and local government web resources and services.